Windham, NY

4:49 PM EDT on August 25, 2016 (GMT -0400)
Townhouse at Base of Windham Mountain Resort | | Change Station

Elev 1640 ft 42.30 °N, 74.26 °W | Updated 3 minutes ago

Light Rain
Light Rain Mist
79.4 °F
Feels Like 81 °F
N
2.2
Wind Variable Wind from SW

Today
High -- | Low -- °F
--% Chance of Precip.
Yesterday
High -- | Low -- °F
Precip. -- in
Pressure 29.97 in
Visibility 3.0 miles
Clouds Few 2400 ft
Mostly Cloudy 3500 ft
Overcast 5500 ft
Heat Index 81 °F
Dew Point 66 °F
Humidity 63%
Rainfall 0.00 in
Snow Depth Not available.
6:15 AM 7:41 PM
Last Quarter, 42% visible
METAR KALB 251951Z 00000KT 3SM -RA BR FEW024 BKN035 OVC055 23/22 A2997 RMK AO2 SFC VIS 4 SLP147 P0025 T02330222 $
Pressure 29.97 in
Visibility 3.0 miles
Clouds Few 2400 ft
Mostly Cloudy 3500 ft
Overcast 5500 ft
Heat Index 81 °F
Dew Point 66 °F
Humidity 63%
Rainfall 0.00 in
Snow Depth Not available.
6:15 AM 7:41 PM
Last Quarter, 42% visible
METAR KALB 251951Z 00000KT 3SM -RA BR FEW024 BKN035 OVC055 23/22 A2997 RMK AO2 SFC VIS 4 SLP147 P0025 T02330222 $
A tropical disturbance pushing toward the Bahamas, is expected to develop into a tropical depression or storm, and will likely target Florida and the Gulf Coast this weekend into next week.

Right now, the disturbance remains a broad area of low pressure pushing through the Dominican Republic and Haiti, headed toward the southeast Bahamas. Rainfall totals over 3 inches (with locally higher amounts) are expected in HispaƱiola, particularly over elevated terrain.

10-Day Weather Forecast

Almanac

Astronomy

Aug. 25, 2016 Rise Set
Actual Time
Civil Twilight
Nautical Twilight
Astronomical Twilight
Moon
Length of Visible Light
Length of Day
Tomorrow will be .
, % of the Moon is Illuminated

Today's Extremes

State Highs State Lows

Community

WunderPhotos

Upload Photos

1,934,931 photos uploaded!

WunderBlog® & News

Nearby

Air Quality

  Air Quality AQ Index Pollutant
Not available.

Snow Depth

Station Depth Elevation

Earthquake Activity

City Distance Mag. Time & Date
Minimum magnitude displayed is 2.5.

Coastal Water Temperatures

Place Temperature

Stations

Nearby Weather Stations

Station Location Temp. Windchill Dew Point Humidity Wind Precip. Elev Updated Type
                   

Watches & Warnings

There are currently no watches in effect.